sensor_id;sensor_type;location;lat;lon;timestamp;pressure;altitude;pressure_sealevel;temperature;humidity
56825;BME280;42705;50.326;18.772;2023-12-28T00:02:51;98730.86;;;2.67;64.78
56825;BME280;42705;50.326;18.772;2023-12-28T00:08:14;98715.25;;;2.68;64.82
56825;BME280;42705;50.326;18.772;2023-12-28T00:13:36;98712.57;;;2.73;65.01
56825;BME280;42705;50.326;18.772;2023-12-28T00:18:57;98703.38;;;2.77;65.13
56825;BME280;42705;50.326;18.772;2023-12-28T00:24:20;98693.11;;;2.79;65.24
56825;BME280;42705;50.326;18.772;2023-12-28T00:29:42;98687.69;;;2.77;65.25
56825;BME280;42705;50.326;18.772;2023-12-28T00:35:04;98680.67;;;2.76;65.48
56825;BME280;42705;50.326;18.772;2023-12-28T00:40:26;98678.30;;;2.81;65.44
56825;BME280;42705;50.326;18.772;2023-12-28T00:45:48;98665.45;;;2.86;65.78
56825;BME280;42705;50.326;18.772;2023-12-28T00:51:10;98663.63;;;2.88;65.96
56825;BME280;42705;50.326;18.772;2023-12-28T00:56:32;98675.62;;;2.89;66.12
56825;BME280;42705;50.326;18.772;2023-12-28T01:01:54;98669.09;;;2.95;66.05
56825;BME280;42705;50.326;18.772;2023-12-28T01:07:15;98668.07;;;2.98;66.02
56825;BME280;42705;50.326;18.772;2023-12-28T01:12:37;98669.92;;;2.96;66.12
56825;BME280;42705;50.326;18.772;2023-12-28T01:17:59;98672.33;;;2.96;66.44
56825;BME280;42705;50.326;18.772;2023-12-28T01:23:21;98674.15;;;2.94;66.47
56825;BME280;42705;50.326;18.772;2023-12-28T01:28:43;98659.59;;;2.92;66.65
56825;BME280;42705;50.326;18.772;2023-12-28T01:34:05;98660.78;;;2.93;66.64
56825;BME280;42705;50.326;18.772;2023-12-28T01:39:28;98653.84;;;2.96;66.68
56825;BME280;42705;50.326;18.772;2023-12-28T01:44:50;98653.83;;;2.93;66.53
56825;BME280;42705;50.326;18.772;2023-12-28T01:50:12;98643.45;;;2.87;66.47
56825;BME280;42705;50.326;18.772;2023-12-28T01:55:34;98636.09;;;2.87;66.56
56825;BME280;42705;50.326;18.772;2023-12-28T02:00:57;98623.55;;;2.86;66.78
56825;BME280;42705;50.326;18.772;2023-12-28T02:06:38;98620.32;;;2.78;66.76
56825;BME280;42705;50.326;18.772;2023-12-28T02:12:00;98607.48;;;2.67;67.01
56825;BME280;42705;50.326;18.772;2023-12-28T02:17:33;98613.36;;;2.61;67.26
56825;BME280;42705;50.326;18.772;2023-12-28T02:22:58;98614.19;;;2.61;67.66
56825;BME280;42705;50.326;18.772;2023-12-28T02:28:20;98618.65;;;2.71;67.64
56825;BME280;42705;50.326;18.772;2023-12-28T02:33:58;98606.89;;;2.81;67.62
56825;BME280;42705;50.326;18.772;2023-12-28T02:39:22;98600.57;;;2.83;67.49
56825;BME280;42705;50.326;18.772;2023-12-28T02:44:45;98588.33;;;2.80;67.76
56825;BME280;42705;50.326;18.772;2023-12-28T02:50:07;98575.59;;;2.77;67.80
56825;BME280;42705;50.326;18.772;2023-12-28T02:55:29;98573.10;;;2.68;67.87
56825;BME280;42705;50.326;18.772;2023-12-28T03:00:51;98564.83;;;2.59;68.10
56825;BME280;42705;50.326;18.772;2023-12-28T03:06:13;98566.48;;;2.48;67.99
56825;BME280;42705;50.326;18.772;2023-12-28T03:11:35;98570.63;;;2.38;68.29
56825;BME280;42705;50.326;18.772;2023-12-28T03:16:57;98566.15;;;2.41;68.97
56825;BME280;42705;50.326;18.772;2023-12-28T03:22:19;98551.73;;;2.56;69.63
56825;BME280;42705;50.326;18.772;2023-12-28T03:27:41;98545.54;;;2.74;69.53
56825;BME280;42705;50.326;18.772;2023-12-28T03:33:04;98542.26;;;2.86;69.40
56825;BME280;42705;50.326;18.772;2023-12-28T03:38:27;98536.13;;;2.85;69.27
56825;BME280;42705;50.326;18.772;2023-12-28T03:43:49;98527.59;;;2.74;69.43
56825;BME280;42705;50.326;18.772;2023-12-28T03:49:11;98548.14;;;2.71;69.81
56825;BME280;42705;50.326;18.772;2023-12-28T03:54:33;98569.41;;;2.73;70.33
56825;BME280;42705;50.326;18.772;2023-12-28T03:59:55;98558.44;;;2.81;70.90
56825;BME280;42705;50.326;18.772;2023-12-28T04:05:17;98562.14;;;2.94;71.01
56825;BME280;42705;50.326;18.772;2023-12-28T04:10:39;98567.92;;;2.99;70.94
56825;BME280;42705;50.326;18.772;2023-12-28T04:16:00;98573.46;;;2.99;70.91
56825;BME280;42705;50.326;18.772;2023-12-28T04:21:23;98582.48;;;3.03;71.33
56825;BME280;42705;50.326;18.772;2023-12-28T04:26:44;98581.73;;;3.11;71.43
56825;BME280;42705;50.326;18.772;2023-12-28T04:32:06;98578.91;;;3.18;71.38
56825;BME280;42705;50.326;18.772;2023-12-28T04:37:29;98571.50;;;3.24;71.71
56825;BME280;42705;50.326;18.772;2023-12-28T04:42:52;98553.21;;;3.32;71.62
56825;BME280;42705;50.326;18.772;2023-12-28T04:48:13;98550.13;;;3.38;71.58
56825;BME280;42705;50.326;18.772;2023-12-28T04:53:36;98551.86;;;3.38;71.70
56825;BME280;42705;50.326;18.772;2023-12-28T04:59:00;98557.20;;;3.38;71.67
56825;BME280;42705;50.326;18.772;2023-12-28T05:04:22;98545.45;;;3.44;71.99
56825;BME280;42705;50.326;18.772;2023-12-28T05:09:45;98537.35;;;3.49;72.10
56825;BME280;42705;50.326;18.772;2023-12-28T05:15:07;98542.44;;;3.54;71.94
56825;BME280;42705;50.326;18.772;2023-12-28T05:20:29;98536.33;;;3.66;72.08
56825;BME280;42705;50.326;18.772;2023-12-28T05:25:51;98520.02;;;3.93;72.41
56825;BME280;42705;50.326;18.772;2023-12-28T05:31:13;98498.20;;;4.40;72.83
56825;BME280;42705;50.326;18.772;2023-12-28T05:36:35;98489.22;;;4.90;71.50
56825;BME280;42705;50.326;18.772;2023-12-28T05:41:57;98506.58;;;5.26;70.58
56825;BME280;42705;50.326;18.772;2023-12-28T05:47:19;98490.27;;;5.52;69.78
56825;BME280;42705;50.326;18.772;2023-12-28T05:52:40;98493.59;;;5.66;69.52
56825;BME280;42705;50.326;18.772;2023-12-28T05:58:02;98500.63;;;5.74;68.54
56825;BME280;42705;50.326;18.772;2023-12-28T06:03:25;98507.94;;;5.79;68.47
56825;BME280;42705;50.326;18.772;2023-12-28T06:08:49;98510.94;;;5.74;68.07
56825;BME280;42705;50.326;18.772;2023-12-28T06:14:12;98529.04;;;5.70;68.27
56825;BME280;42705;50.326;18.772;2023-12-28T06:19:34;98534.92;;;5.75;68.23
56825;BME280;42705;50.326;18.772;2023-12-28T06:24:56;98534.45;;;5.89;68.13
56825;BME280;42705;50.326;18.772;2023-12-28T06:30:18;98526.34;;;5.99;68.12
56825;BME280;42705;50.326;18.772;2023-12-28T06:35:41;98545.80;;;6.03;67.71
56825;BME280;42705;50.326;18.772;2023-12-28T06:41:10;98541.23;;;6.06;67.79
56825;BME280;42705;50.326;18.772;2023-12-28T06:46:32;98540.55;;;6.04;67.95
56825;BME280;42705;50.326;18.772;2023-12-28T06:51:54;98529.73;;;5.97;68.06
56825;BME280;42705;50.326;18.772;2023-12-28T06:57:16;98541.69;;;5.90;68.13
56825;BME280;42705;50.326;18.772;2023-12-28T07:02:38;98547.08;;;5.79;68.05
56825;BME280;42705;50.326;18.772;2023-12-28T07:08:00;98550.66;;;5.73;68.32
56825;BME280;42705;50.326;18.772;2023-12-28T07:13:22;98564.59;;;5.69;68.34
56825;BME280;42705;50.326;18.772;2023-12-28T07:18:43;98570.52;;;5.64;68.60
56825;BME280;42705;50.326;18.772;2023-12-28T07:24:08;98570.46;;;5.62;68.61
56825;BME280;42705;50.326;18.772;2023-12-28T07:29:29;98573.29;;;5.61;68.50
56825;BME280;42705;50.326;18.772;2023-12-28T07:34:53;98576.23;;;5.59;68.54
56825;BME280;42705;50.326;18.772;2023-12-28T07:40:15;98583.48;;;5.59;68.55
56825;BME280;42705;50.326;18.772;2023-12-28T07:45:37;98588.81;;;5.60;68.51
56825;BME280;42705;50.326;18.772;2023-12-28T07:51:04;98597.61;;;5.58;68.69
56825;BME280;42705;50.326;18.772;2023-12-28T07:56:27;98597.63;;;5.55;68.73
56825;BME280;42705;50.326;18.772;2023-12-28T08:01:48;98593.38;;;5.61;69.15
56825;BME280;42705;50.326;18.772;2023-12-28T08:07:10;98582.79;;;5.67;68.90
56825;BME280;42705;50.326;18.772;2023-12-28T08:12:32;98583.68;;;5.67;68.83
56825;BME280;42705;50.326;18.772;2023-12-28T08:17:54;98581.52;;;5.68;69.07
56825;BME280;42705;50.326;18.772;2023-12-28T08:23:16;98588.87;;;5.72;69.04
56825;BME280;42705;50.326;18.772;2023-12-28T08:28:37;98608.92;;;5.75;69.22
56825;BME280;42705;50.326;18.772;2023-12-28T08:33:59;98619.95;;;5.76;69.20
56825;BME280;42705;50.326;18.772;2023-12-28T08:39:21;98629.35;;;5.81;69.19
56825;BME280;42705;50.326;18.772;2023-12-28T08:44:43;98634.45;;;5.90;69.14
56825;BME280;42705;50.326;18.772;2023-12-28T08:50:05;98633.05;;;5.95;69.16
56825;BME280;42705;50.326;18.772;2023-12-28T08:55:27;98636.63;;;5.96;69.03
56825;BME280;42705;50.326;18.772;2023-12-28T09:00:50;98637.05;;;6.03;68.92
56825;BME280;42705;50.326;18.772;2023-12-28T09:06:11;98631.89;;;6.12;69.21
56825;BME280;42705;50.326;18.772;2023-12-28T09:11:34;98625.07;;;6.21;68.76
56825;BME280;42705;50.326;18.772;2023-12-28T09:16:56;98614.92;;;6.29;68.68
56825;BME280;42705;50.326;18.772;2023-12-28T09:22:18;98605.15;;;6.45;68.42
56825;BME280;42705;50.326;18.772;2023-12-28T09:27:41;98600.48;;;6.62;68.46
56825;BME280;42705;50.326;18.772;2023-12-28T09:33:02;98591.55;;;6.75;68.10
56825;BME280;42705;50.326;18.772;2023-12-28T09:38:25;98588.78;;;6.92;67.55
56825;BME280;42705;50.326;18.772;2023-12-28T09:44:07;98582.56;;;7.12;67.67
56825;BME280;42705;50.326;18.772;2023-12-28T09:49:30;98565.88;;;7.31;66.98
56825;BME280;42705;50.326;18.772;2023-12-28T09:54:54;98559.35;;;7.44;66.16
56825;BME280;42705;50.326;18.772;2023-12-28T10:00:16;98557.96;;;7.55;65.88
56825;BME280;42705;50.326;18.772;2023-12-28T10:05:41;98562.51;;;7.67;65.61
56825;BME280;42705;50.326;18.772;2023-12-28T10:11:03;98562.21;;;7.75;64.61
56825;BME280;42705;50.326;18.772;2023-12-28T10:16:26;98552.19;;;7.76;64.38
56825;BME280;42705;50.326;18.772;2023-12-28T10:21:47;98550.30;;;7.81;64.41
56825;BME280;42705;50.326;18.772;2023-12-28T10:27:09;98544.27;;;7.87;64.13
56825;BME280;42705;50.326;18.772;2023-12-28T10:32:31;98537.42;;;7.94;63.58
56825;BME280;42705;50.326;18.772;2023-12-28T10:37:53;98539.45;;;8.10;63.63
56825;BME280;42705;50.326;18.772;2023-12-28T10:43:20;98526.66;;;8.29;63.57
56825;BME280;42705;50.326;18.772;2023-12-28T10:48:46;98517.52;;;8.46;63.39
56825;BME280;42705;50.326;18.772;2023-12-28T11:00:04;98500.00;;;8.58;62.77
56825;BME280;42705;50.326;18.772;2023-12-28T11:05:31;98505.27;;;8.70;62.91
56825;BME280;42705;50.326;18.772;2023-12-28T11:10:55;98507.11;;;8.80;62.40
56825;BME280;42705;50.326;18.772;2023-12-28T11:16:18;98501.36;;;8.92;62.25
56825;BME280;42705;50.326;18.772;2023-12-28T11:21:41;98492.80;;;9.12;61.64
56825;BME280;42705;50.326;18.772;2023-12-28T11:27:04;98497.71;;;9.34;61.21
56825;BME280;42705;50.326;18.772;2023-12-28T11:32:27;98497.41;;;9.66;60.33
56825;BME280;42705;50.326;18.772;2023-12-28T11:37:51;98492.10;;;9.82;59.21
56825;BME280;42705;50.326;18.772;2023-12-28T11:43:17;98499.93;;;9.90;58.19
56825;BME280;42705;50.326;18.772;2023-12-28T11:48:40;98477.88;;;9.95;58.32
56825;BME280;42705;50.326;18.772;2023-12-28T11:54:02;98477.20;;;10.03;57.66
56825;BME280;42705;50.326;18.772;2023-12-28T11:59:25;98486.86;;;9.96;57.39
56825;BME280;42705;50.326;18.772;2023-12-28T12:04:47;98471.52;;;9.88;57.60
56825;BME280;42705;50.326;18.772;2023-12-28T12:10:15;98473.27;;;9.78;57.95
56825;BME280;42705;50.326;18.772;2023-12-28T12:15:37;98479.19;;;9.64;58.32
56825;BME280;42705;50.326;18.772;2023-12-28T12:21:01;98489.45;;;9.56;58.51
56825;BME280;42705;50.326;18.772;2023-12-28T12:26:23;98487.39;;;9.41;58.68
56825;BME280;42705;50.326;18.772;2023-12-28T12:31:48;98479.60;;;9.32;58.53
56825;BME280;42705;50.326;18.772;2023-12-28T12:37:10;98480.34;;;9.30;58.78
56825;BME280;42705;50.326;18.772;2023-12-28T12:42:33;98472.07;;;9.35;58.77
56825;BME280;42705;50.326;18.772;2023-12-28T12:47:57;98462.72;;;9.62;58.53
56825;BME280;42705;50.326;18.772;2023-12-28T12:53:19;98454.13;;;10.33;57.86
56825;BME280;42705;50.326;18.772;2023-12-28T12:58:41;98460.14;;;10.16;58.14
56825;BME280;42705;50.326;18.772;2023-12-28T13:04:03;98459.56;;;9.85;58.26
56825;BME280;42705;50.326;18.772;2023-12-28T13:09:24;98453.05;;;9.69;58.51
56825;BME280;42705;50.326;18.772;2023-12-28T13:14:46;98450.61;;;9.67;58.57
56825;BME280;42705;50.326;18.772;2023-12-28T13:20:09;98446.48;;;9.54;58.80
56825;BME280;42705;50.326;18.772;2023-12-28T13:25:32;98457.59;;;9.41;59.03
56825;BME280;42705;50.326;18.772;2023-12-28T13:30:54;98464.89;;;9.33;59.44
56825;BME280;42705;50.326;18.772;2023-12-28T13:36:17;98457.23;;;9.29;59.40
56825;BME280;42705;50.326;18.772;2023-12-28T13:41:40;98462.48;;;9.20;59.58
56825;BME280;42705;50.326;18.772;2023-12-28T13:47:03;98453.20;;;9.10;59.24
56825;BME280;42705;50.326;18.772;2023-12-28T13:52:25;98458.60;;;9.06;58.96
56825;BME280;42705;50.326;18.772;2023-12-28T13:57:47;98465.00;;;9.00;58.65
56825;BME280;42705;50.326;18.772;2023-12-28T14:03:09;98486.05;;;8.94;58.83
56825;BME280;42705;50.326;18.772;2023-12-28T14:08:31;98484.35;;;8.90;58.94
56825;BME280;42705;50.326;18.772;2023-12-28T14:13:54;98477.30;;;8.84;58.77
56825;BME280;42705;50.326;18.772;2023-12-28T14:19:15;98469.05;;;8.79;59.00
56825;BME280;42705;50.326;18.772;2023-12-28T14:24:38;98460.04;;;8.74;58.71
56825;BME280;42705;50.326;18.772;2023-12-28T14:30:00;98475.63;;;8.69;58.80
56825;BME280;42705;50.326;18.772;2023-12-28T14:35:25;98477.95;;;8.64;58.78
56825;BME280;42705;50.326;18.772;2023-12-28T14:40:47;98485.33;;;8.59;58.81
56825;BME280;42705;50.326;18.772;2023-12-28T14:46:11;98483.17;;;8.53;58.94
56825;BME280;42705;50.326;18.772;2023-12-28T14:51:33;98481.73;;;8.47;59.04
56825;BME280;42705;50.326;18.772;2023-12-28T14:56:54;98490.57;;;8.41;59.34
56825;BME280;42705;50.326;18.772;2023-12-28T15:02:16;98485.06;;;8.36;59.43
56825;BME280;42705;50.326;18.772;2023-12-28T15:07:38;98485.71;;;8.34;59.62
56825;BME280;42705;50.326;18.772;2023-12-28T15:13:01;98481.70;;;8.32;59.80
56825;BME280;42705;50.326;18.772;2023-12-28T15:18:23;98481.98;;;8.29;59.91
56825;BME280;42705;50.326;18.772;2023-12-28T15:23:48;98484.10;;;8.24;59.92
56825;BME280;42705;50.326;18.772;2023-12-28T15:29:11;98484.68;;;8.19;59.65
56825;BME280;42705;50.326;18.772;2023-12-28T15:34:34;98482.13;;;8.14;59.34
56825;BME280;42705;50.326;18.772;2023-12-28T15:39:56;98480.36;;;8.09;59.41
56825;BME280;42705;50.326;18.772;2023-12-28T15:45:18;98480.49;;;8.04;59.23
56825;BME280;42705;50.326;18.772;2023-12-28T15:50:40;98485.83;;;8.00;59.86
56825;BME280;42705;50.326;18.772;2023-12-28T15:56:02;98484.32;;;7.97;60.00
56825;BME280;42705;50.326;18.772;2023-12-28T16:01:24;98487.66;;;7.94;60.16
56825;BME280;42705;50.326;18.772;2023-12-28T16:06:46;98491.68;;;7.90;60.32
56825;BME280;42705;50.326;18.772;2023-12-28T16:12:08;98493.15;;;7.82;60.23
56825;BME280;42705;50.326;18.772;2023-12-28T16:17:30;98488.36;;;7.74;60.36
56825;BME280;42705;50.326;18.772;2023-12-28T16:22:53;98486.86;;;7.72;60.49
56825;BME280;42705;50.326;18.772;2023-12-28T16:28:16;98485.10;;;7.65;60.40
56825;BME280;42705;50.326;18.772;2023-12-28T16:33:37;98489.71;;;7.55;60.67
56825;BME280;42705;50.326;18.772;2023-12-28T16:38:59;98496.77;;;7.44;60.45
56825;BME280;42705;50.326;18.772;2023-12-28T16:44:22;98508.40;;;7.35;61.04
56825;BME280;42705;50.326;18.772;2023-12-28T16:49:44;98510.48;;;7.26;60.86
56825;BME280;42705;50.326;18.772;2023-12-28T16:55:06;98508.52;;;7.15;61.25
56825;BME280;42705;50.326;18.772;2023-12-28T17:00:28;98498.75;;;7.07;61.46
56825;BME280;42705;50.326;18.772;2023-12-28T17:05:49;98489.32;;;7.05;61.88
56825;BME280;42705;50.326;18.772;2023-12-28T17:11:15;98482.36;;;7.03;61.80
56825;BME280;42705;50.326;18.772;2023-12-28T17:16:41;98475.05;;;6.96;62.05
56825;BME280;42705;50.326;18.772;2023-12-28T17:22:04;98476.34;;;6.88;62.05
56825;BME280;42705;50.326;18.772;2023-12-28T17:27:33;98476.65;;;6.79;62.21
56825;BME280;42705;50.326;18.772;2023-12-28T17:33:02;98472.75;;;6.69;62.17
56825;BME280;42705;50.326;18.772;2023-12-28T17:38:24;98469.13;;;6.66;62.38
56825;BME280;42705;50.326;18.772;2023-12-28T17:43:51;98487.59;;;6.68;62.50
56825;BME280;42705;50.326;18.772;2023-12-28T17:54:45;98476.21;;;6.59;62.71
56825;BME280;42705;50.326;18.772;2023-12-28T18:00:09;98475.52;;;6.52;62.87
56825;BME280;42705;50.326;18.772;2023-12-28T18:05:31;98467.11;;;6.44;62.92
56825;BME280;42705;50.326;18.772;2023-12-28T18:11:02;98458.16;;;6.36;62.77
56825;BME280;42705;50.326;18.772;2023-12-28T18:16:24;98449.17;;;6.35;63.07
56825;BME280;42705;50.326;18.772;2023-12-28T18:21:46;98450.23;;;6.38;63.16
56825;BME280;42705;50.326;18.772;2023-12-28T18:27:09;98455.40;;;6.41;63.39
56825;BME280;42705;50.326;18.772;2023-12-28T18:32:31;98457.23;;;6.39;63.21
56825;BME280;42705;50.326;18.772;2023-12-28T18:37:52;98450.50;;;6.34;63.14
56825;BME280;42705;50.326;18.772;2023-12-28T18:43:16;98449.98;;;6.29;63.71
56825;BME280;42705;50.326;18.772;2023-12-28T18:48:38;98459.92;;;6.29;64.00
56825;BME280;42705;50.326;18.772;2023-12-28T18:54:00;98467.65;;;6.34;63.48
56825;BME280;42705;50.326;18.772;2023-12-28T18:59:22;98465.77;;;6.36;63.89
56825;BME280;42705;50.326;18.772;2023-12-28T19:04:49;98464.39;;;6.34;63.69
56825;BME280;42705;50.326;18.772;2023-12-28T19:10:11;98457.69;;;6.30;63.67
56825;BME280;42705;50.326;18.772;2023-12-28T19:15:33;98454.91;;;6.26;63.84
56825;BME280;42705;50.326;18.772;2023-12-28T19:20:55;98446.98;;;6.22;63.91
56825;BME280;42705;50.326;18.772;2023-12-28T19:26:17;98446.73;;;6.26;63.84
56825;BME280;42705;50.326;18.772;2023-12-28T19:31:40;98449.70;;;6.28;64.38
56825;BME280;42705;50.326;18.772;2023-12-28T19:37:02;98459.79;;;6.25;64.30
56825;BME280;42705;50.326;18.772;2023-12-28T19:42:26;98452.76;;;6.19;64.31
56825;BME280;42705;50.326;18.772;2023-12-28T19:47:48;98449.36;;;6.16;64.34
56825;BME280;42705;50.326;18.772;2023-12-28T19:53:10;98462.48;;;6.21;65.00
56825;BME280;42705;50.326;18.772;2023-12-28T19:58:38;98465.10;;;6.26;64.64
56825;BME280;42705;50.326;18.772;2023-12-28T20:04:00;98482.59;;;6.24;65.20
56825;BME280;42705;50.326;18.772;2023-12-28T20:09:22;98479.52;;;6.19;65.23
56825;BME280;42705;50.326;18.772;2023-12-28T20:14:48;98474.73;;;6.15;65.04
56825;BME280;42705;50.326;18.772;2023-12-28T20:20:11;98478.70;;;6.23;65.23
56825;BME280;42705;50.326;18.772;2023-12-28T20:25:33;98477.88;;;6.30;65.31
56825;BME280;42705;50.326;18.772;2023-12-28T20:30:55;98479.77;;;6.32;65.40
56825;BME280;42705;50.326;18.772;2023-12-28T20:36:17;98485.04;;;6.29;65.36
56825;BME280;42705;50.326;18.772;2023-12-28T20:41:41;98474.27;;;6.24;65.33
56825;BME280;42705;50.326;18.772;2023-12-28T20:47:05;98475.66;;;6.27;65.56
56825;BME280;42705;50.326;18.772;2023-12-28T20:52:28;98479.07;;;6.32;65.76
56825;BME280;42705;50.326;18.772;2023-12-28T20:57:52;98469.34;;;6.35;65.60
56825;BME280;42705;50.326;18.772;2023-12-28T21:03:14;98472.10;;;6.35;65.62
56825;BME280;42705;50.326;18.772;2023-12-28T21:08:48;98469.09;;;6.36;65.70
56825;BME280;42705;50.326;18.772;2023-12-28T21:14:10;98468.17;;;6.34;65.52
56825;BME280;42705;50.326;18.772;2023-12-28T21:19:34;98464.37;;;6.36;65.59
56825;BME280;42705;50.326;18.772;2023-12-28T21:24:58;98473.88;;;6.34;65.66
56825;BME280;42705;50.326;18.772;2023-12-28T21:30:22;98465.81;;;6.28;65.57
56825;BME280;42705;50.326;18.772;2023-12-28T21:35:45;98468.46;;;6.20;65.71
56825;BME280;42705;50.326;18.772;2023-12-28T21:41:08;98468.00;;;6.13;65.73
56825;BME280;42705;50.326;18.772;2023-12-28T21:46:31;98468.39;;;6.14;65.70
56825;BME280;42705;50.326;18.772;2023-12-28T21:51:56;98471.75;;;6.20;65.93
56825;BME280;42705;50.326;18.772;2023-12-28T21:57:20;98469.33;;;6.23;66.14
56825;BME280;42705;50.326;18.772;2023-12-28T22:02:44;98466.55;;;6.20;66.23
56825;BME280;42705;50.326;18.772;2023-12-28T22:08:06;98467.43;;;6.16;66.02
56825;BME280;42705;50.326;18.772;2023-12-28T22:13:29;98461.36;;;6.20;66.37
56825;BME280;42705;50.326;18.772;2023-12-28T22:18:51;98461.42;;;6.31;66.43
56825;BME280;42705;50.326;18.772;2023-12-28T22:24:13;98467.96;;;6.42;66.46
56825;BME280;42705;50.326;18.772;2023-12-28T22:29:34;98469.23;;;6.46;66.26
56825;BME280;42705;50.326;18.772;2023-12-28T22:34:57;98472.79;;;6.42;66.19
56825;BME280;42705;50.326;18.772;2023-12-28T22:40:23;98462.27;;;6.46;66.23
56825;BME280;42705;50.326;18.772;2023-12-28T22:45:45;98454.10;;;6.49;66.26
56825;BME280;42705;50.326;18.772;2023-12-28T22:51:07;98454.35;;;6.48;66.16
56825;BME280;42705;50.326;18.772;2023-12-28T22:56:33;98460.54;;;6.37;66.38
56825;BME280;42705;50.326;18.772;2023-12-28T23:01:55;98460.41;;;6.24;66.44
56825;BME280;42705;50.326;18.772;2023-12-28T23:07:17;98463.23;;;6.23;66.93
56825;BME280;42705;50.326;18.772;2023-12-28T23:12:40;98454.90;;;6.26;67.34
56825;BME280;42705;50.326;18.772;2023-12-28T23:18:03;98451.58;;;6.24;67.72
56825;BME280;42705;50.326;18.772;2023-12-28T23:23:24;98449.58;;;6.22;68.42
56825;BME280;42705;50.326;18.772;2023-12-28T23:28:47;98447.84;;;6.20;69.00
56825;BME280;42705;50.326;18.772;2023-12-28T23:34:09;98450.61;;;6.16;69.00
56825;BME280;42705;50.326;18.772;2023-12-28T23:39:31;98448.59;;;6.10;69.12
56825;BME280;42705;50.326;18.772;2023-12-28T23:44:53;98441.34;;;6.12;69.62
56825;BME280;42705;50.326;18.772;2023-12-28T23:50:15;98432.05;;;6.13;69.86
56825;BME280;42705;50.326;18.772;2023-12-28T23:55:36;98424.14;;;6.12;69.75
